KMTW/MTW METAR and TAF weather

Enter ICAO airport designator
Station Type Date Time Source
KMTW METAR 2022/06/28 07:56 UTC NOAA

KMTW 280756Z AUTO 00000KT 10SM CLR 13/11 A3016 RMK AO2 SLP214 T01280106


Station Type Date Time Source
KMTW Decoded METAR 2022/06/28 07:56 UTC NOAA

Manitowoc, Manitowoc County Airport, WI, United States (KMTW) 44-08N 087-41W
Jun 28, 2022 - 03:56 AM EDT / 2022.06.28 0756 UTC
Wind: Calm:0
Visibility: 10 mile(s):0
Sky conditions: clear
Temperature: 55.0 F (12.8 C)
Dew Point: 51.1 F (10.6 C)
Relative Humidity: 86%
Pressure (altimeter): 30.16 in. Hg (1021 hPa)
ob: KMTW 280756Z AUTO 00000KT 10SM CLR 13/11 A3016 RMK AO2 SLP214 T01280106
cycle: 8

Station Type Date Time Source
KMTW TAF 2022/06/28 06:22 UTC NOAA

TAF KMTW 280520Z 2806/2906 20005KT P6SM SKC
FM281500 25011G19KT P6SM -SHRA BKN080
FM281800 25011G20KT P6SM -RA BKN080 PROB30 2821/2824 4SM -TSRA BKN050CB
FM290100 25006KT 6SM -SHRA OVC080
FM290200 20003KT P6SM -SHRA BKN060

Example: see airport list